createdAt,value
2018-07-05T00:00:02.387Z,2.10
2018-07-05T00:01:02.381Z,2.10
2018-07-05T00:02:02.371Z,1.90
2018-07-05T00:03:02.370Z,1.90
2018-07-05T00:04:02.349Z,2.00
2018-07-05T00:05:02.334Z,2.30
2018-07-05T00:06:02.323Z,2.00
2018-07-05T00:07:02.311Z,2.20
2018-07-05T00:08:02.315Z,1.70
2018-07-05T00:09:02.290Z,2.10
2018-07-05T00:10:02.280Z,1.90
2018-07-05T00:11:02.269Z,2.10
2018-07-05T00:12:02.257Z,2.00
2018-07-05T00:13:02.261Z,2.00
2018-07-05T00:14:02.236Z,1.80
2018-07-05T00:15:02.226Z,2.10
2018-07-05T00:16:02.250Z,1.80
2018-07-05T00:17:02.207Z,1.70
2018-07-05T00:18:02.205Z,1.90
2018-07-05T00:19:02.182Z,1.60
2018-07-05T00:20:02.176Z,1.70
2018-07-05T00:21:02.164Z,1.70
2018-07-05T00:22:02.149Z,2.80
2018-07-05T00:23:03.024Z,2.00
2018-07-05T00:24:02.130Z,2.20
2018-07-05T00:25:02.330Z,2.00
2018-07-05T00:26:02.349Z,2.60
2018-07-05T00:27:02.104Z,1.60
2018-07-05T00:28:02.091Z,1.90
2018-07-05T00:29:02.089Z,1.80
2018-07-05T00:30:02.067Z,2.20
2018-07-05T00:31:02.053Z,1.50
2018-07-05T00:32:02.044Z,2.10
2018-07-05T00:33:02.033Z,2.40
2018-07-05T00:34:02.035Z,1.90
2018-07-05T00:35:02.009Z,2.40
2018-07-05T00:36:02.000Z,1.90
2018-07-05T00:37:01.988Z,1.80
2018-07-05T00:38:01.980Z,1.50
2018-07-05T00:39:01.988Z,1.90
2018-07-05T00:40:01.958Z,1.70
2018-07-05T00:41:01.944Z,2.00
2018-07-05T00:42:01.934Z,1.90
2018-07-05T00:43:01.923Z,1.80
2018-07-05T00:44:01.929Z,1.90
2018-07-05T00:45:01.901Z,1.60
2018-07-05T00:46:01.890Z,2.10
2018-07-05T00:47:01.891Z,1.90
2018-07-05T00:48:01.871Z,2.00
2018-07-05T00:49:01.923Z,2.10
2018-07-05T00:50:01.848Z,1.80
2018-07-05T00:51:01.835Z,1.90
2018-07-05T00:52:01.824Z,1.70
2018-07-05T00:53:01.816Z,1.90
2018-07-05T00:54:01.819Z,1.60
2018-07-05T00:55:01.797Z,2.00
2018-07-05T00:56:01.781Z,2.30
2018-07-05T00:57:01.772Z,1.90
2018-07-05T00:58:01.760Z,1.80
2018-07-05T00:59:01.763Z,1.80
2018-07-05T01:00:01.739Z,1.80
2018-07-05T01:01:01.730Z,1.90
2018-07-05T01:02:01.720Z,2.40
2018-07-05T01:03:01.705Z,1.90
2018-07-05T01:04:01.709Z,1.60
2018-07-05T01:05:01.683Z,2.10
2018-07-05T01:06:01.675Z,1.80
2018-07-05T01:07:01.665Z,1.60
2018-07-05T01:08:01.650Z,1.80
2018-07-05T01:09:01.655Z,2.00
2018-07-05T01:10:01.629Z,2.10
2018-07-05T01:11:01.620Z,1.80
2018-07-05T01:12:01.605Z,1.90
2018-07-05T01:13:01.595Z,2.00
2018-07-05T01:14:01.599Z,2.40
2018-07-05T01:15:01.573Z,2.20
2018-07-05T01:16:01.563Z,2.20
2018-07-05T01:17:01.551Z,1.90
2018-07-05T01:18:01.540Z,1.80
2018-07-05T01:19:01.558Z,1.80
2018-07-05T01:20:01.519Z,1.80
2018-07-05T01:21:01.510Z,1.90
2018-07-05T01:22:01.496Z,2.20
2018-07-05T01:23:01.485Z,2.10
2018-07-05T01:24:01.511Z,1.90
2018-07-05T01:25:01.482Z,2.20
2018-07-05T01:26:01.454Z,2.40
2018-07-05T01:27:01.443Z,2.20
2018-07-05T01:28:01.433Z,2.20
2018-07-05T01:29:01.421Z,2.00
2018-07-05T01:30:01.440Z,2.30
2018-07-05T01:31:01.398Z,1.90
2018-07-05T01:32:01.387Z,2.10
2018-07-05T01:33:01.380Z,1.90
2018-07-05T01:34:01.366Z,2.00
2018-07-05T01:35:01.368Z,1.70
2018-07-05T01:36:01.344Z,2.20
2018-07-05T01:37:01.334Z,2.00
2018-07-05T01:38:01.323Z,2.20
2018-07-05T01:39:01.313Z,1.80
2018-07-05T01:40:01.317Z,2.10
2018-07-05T01:41:01.291Z,1.70
2018-07-05T01:42:01.280Z,1.90
2018-07-05T01:43:01.270Z,2.00
2018-07-05T01:44:01.263Z,1.70
2018-07-05T01:45:01.261Z,1.60
2018-07-05T01:46:01.241Z,2.10
2018-07-05T01:47:01.227Z,2.20
2018-07-05T01:48:01.215Z,1.90
2018-07-05T01:49:01.203Z,2.10
2018-07-05T01:50:01.205Z,1.70
2018-07-05T01:51:01.180Z,1.80
2018-07-05T01:52:01.169Z,2.00
2018-07-05T01:53:01.160Z,1.90
2018-07-05T01:54:01.150Z,1.80
2018-07-05T01:55:01.152Z,2.50
2018-07-05T01:56:01.127Z,1.90
2018-07-05T01:57:01.116Z,2.20
2018-07-05T01:58:01.105Z,1.90
2018-07-05T01:59:01.096Z,2.10
2018-07-05T02:00:01.101Z,2.00
2018-07-05T02:01:01.072Z,2.20
2018-07-05T02:02:01.061Z,2.20
2018-07-05T02:03:01.050Z,2.00
2018-07-05T02:04:01.040Z,2.20
2018-07-05T02:05:01.046Z,2.10
2018-07-05T02:06:01.017Z,1.60
2018-07-05T02:07:01.006Z,2.50
2018-07-05T02:08:00.995Z,2.00
2018-07-05T02:09:00.984Z,2.20
2018-07-05T02:10:01.000Z,2.10
2018-07-05T02:11:00.963Z,1.90
2018-07-05T02:12:00.953Z,2.10
2018-07-05T02:13:00.945Z,1.90
2018-07-05T02:14:00.930Z,2.00
2018-07-05T02:15:00.919Z,2.10
2018-07-05T02:16:00.994Z,1.80
2018-07-05T02:17:00.898Z,1.90
2018-07-05T02:18:00.888Z,1.70
2018-07-05T02:19:00.876Z,2.00
2018-07-05T02:20:00.865Z,1.80
2018-07-05T02:21:00.871Z,2.20
2018-07-05T02:22:00.848Z,1.50
2018-07-05T02:23:00.832Z,1.80
2018-07-05T02:24:00.825Z,1.90
2018-07-05T02:25:00.810Z,1.80
2018-07-05T02:26:00.819Z,1.50
2018-07-05T02:27:00.789Z,2.20
2018-07-05T02:28:00.778Z,1.90
2018-07-05T02:29:00.767Z,2.20
2018-07-05T02:30:00.760Z,1.90
2018-07-05T02:31:00.758Z,2.10
2018-07-05T02:32:00.737Z,2.40
2018-07-05T02:33:00.723Z,1.80
2018-07-05T02:34:00.715Z,2.30
2018-07-05T02:35:00.701Z,2.20
2018-07-05T02:36:00.706Z,1.90
2018-07-05T02:37:00.679Z,2.10
2018-07-05T02:38:00.669Z,2.50
2018-07-05T02:39:00.657Z,1.90
2018-07-05T02:40:00.647Z,1.90
2018-07-05T02:41:00.652Z,2.30
2018-07-05T02:42:00.628Z,2.20
2018-07-05T02:43:00.614Z,2.00
2018-07-05T02:44:00.606Z,2.40
2018-07-05T02:45:00.594Z,1.70
2018-07-05T02:46:00.594Z,2.00
2018-07-05T02:47:00.569Z,1.80
2018-07-05T02:48:00.560Z,2.30
2018-07-05T02:49:00.547Z,2.20
2018-07-05T02:50:00.537Z,2.40
2018-07-05T02:51:00.541Z,1.80
2018-07-05T02:52:00.517Z,2.20
2018-07-05T02:53:00.504Z,2.10
2018-07-05T02:54:00.494Z,2.10
2018-07-05T02:55:00.484Z,1.80
2018-07-05T02:56:00.489Z,1.90
2018-07-05T02:57:00.460Z,2.00
2018-07-05T02:58:00.449Z,2.20
2018-07-05T02:59:00.439Z,2.20
2018-07-05T03:00:00.430Z,1.90
2018-07-05T03:01:00.435Z,2.10
2018-07-05T03:02:00.408Z,2.30
2018-07-05T03:03:00.395Z,1.80
2018-07-05T03:04:00.384Z,1.90
2018-07-05T03:05:00.376Z,1.90
2018-07-05T03:06:00.362Z,1.80
2018-07-05T03:07:00.364Z,2.30
2018-07-05T03:08:00.341Z,1.60
2018-07-05T03:09:00.332Z,2.30
2018-07-05T03:10:00.319Z,2.20
2018-07-05T03:11:00.308Z,1.80
2018-07-05T03:12:00.314Z,1.60
2018-07-05T03:13:00.289Z,2.00
2018-07-05T03:14:00.277Z,2.10
2018-07-05T03:15:00.265Z,1.90
2018-07-05T03:16:00.257Z,2.10
2018-07-05T03:17:00.260Z,1.90
2018-07-05T03:18:00.235Z,1.60
2018-07-05T03:19:00.220Z,2.40
2018-07-05T03:20:00.210Z,2.30
2018-07-05T03:21:00.205Z,1.80
2018-07-05T03:22:00.202Z,2.30
2018-07-05T03:23:00.179Z,1.90
2018-07-05T03:24:00.167Z,2.00
2018-07-05T03:25:00.156Z,2.00
2018-07-05T03:26:00.146Z,1.70
2018-07-05T03:27:00.151Z,2.00
2018-07-05T03:28:00.124Z,2.20
2018-07-05T03:29:00.112Z,2.20
2018-07-05T03:30:00.109Z,2.60
2018-07-05T03:31:00.103Z,2.10
2018-07-05T03:32:00.095Z,2.20
2018-07-05T03:33:00.069Z,1.90
2018-07-05T03:34:00.060Z,2.40
2018-07-05T03:35:00.049Z,2.30
2018-07-05T03:36:00.041Z,2.00
2018-07-05T03:37:00.045Z,2.30
2018-07-05T03:38:00.033Z,2.10
2018-07-05T03:39:00.007Z,2.00
2018-07-05T03:39:59.995Z,2.30
2018-07-05T03:40:59.983Z,2.20
2018-07-05T03:41:59.986Z,2.80
2018-07-05T03:42:59.961Z,1.80
2018-07-05T03:43:59.955Z,2.10
2018-07-05T03:44:59.937Z,2.10
2018-07-05T03:45:59.926Z,1.70
2018-07-05T03:46:59.931Z,2.10
2018-07-05T03:47:59.907Z,1.80
2018-07-05T03:48:59.894Z,2.40
2018-07-05T03:49:59.883Z,1.90
2018-07-05T03:50:59.873Z,1.90
2018-07-05T03:51:59.881Z,1.90
2018-07-05T03:52:59.852Z,2.60
2018-07-05T03:53:59.842Z,2.50
2018-07-05T03:54:59.830Z,1.80
2018-07-05T03:55:59.827Z,1.80
2018-07-05T03:56:59.809Z,1.90
2018-07-05T03:57:59.827Z,1.80
2018-07-05T03:58:59.785Z,2.10
2018-07-05T03:59:59.780Z,2.40
2018-07-05T04:00:59.763Z,2.30
2018-07-05T04:01:59.751Z,1.90
2018-07-05T04:02:59.758Z,2.20
2018-07-05T04:03:59.736Z,1.80
2018-07-05T04:04:59.718Z,2.40
2018-07-05T04:05:59.708Z,2.50
2018-07-05T04:06:59.704Z,1.90
2018-07-05T04:07:59.699Z,2.30
2018-07-05T04:08:59.675Z,2.60
2018-07-05T04:09:59.668Z,2.00
2018-07-05T04:10:59.654Z,2.40
2018-07-05T04:11:59.643Z,2.00
2018-07-05T04:12:59.646Z,2.20
2018-07-05T04:13:59.623Z,2.40
2018-07-05T04:14:59.617Z,1.90
2018-07-05T04:15:59.600Z,2.00
2018-07-05T04:16:59.592Z,2.20
2018-07-05T04:17:59.595Z,2.10
2018-07-05T04:18:59.569Z,1.90
2018-07-05T04:19:59.560Z,2.10
2018-07-05T04:20:59.556Z,1.90
2018-07-05T04:21:59.536Z,2.10
2018-07-05T04:22:59.539Z,2.10
2018-07-05T04:23:59.597Z,2.10
2018-07-05T04:24:59.553Z,1.70
2018-07-05T04:25:59.490Z,2.10
2018-07-05T04:26:59.480Z,1.80
2018-07-05T04:27:59.486Z,1.90
2018-07-05T04:28:59.457Z,1.70
2018-07-05T04:29:59.451Z,2.00
2018-07-05T04:30:59.437Z,2.20
2018-07-05T04:31:59.426Z,1.80
2018-07-05T04:32:59.428Z,2.10
2018-07-05T04:33:59.415Z,1.90
2018-07-05T04:34:59.395Z,1.90
2018-07-05T04:35:59.383Z,2.00
2018-07-05T04:36:59.371Z,2.30
2018-07-05T04:37:59.373Z,1.90
2018-07-05T04:38:59.350Z,1.80
2018-07-05T04:39:59.337Z,1.60
2018-07-05T04:40:59.328Z,2.00
2018-07-05T04:41:59.317Z,1.80
2018-07-05T04:42:59.327Z,1.60
2018-07-05T04:43:59.296Z,1.90
2018-07-05T04:44:59.287Z,1.60
2018-07-05T04:45:59.275Z,1.70
2018-07-05T04:46:59.262Z,2.00
2018-07-05T04:47:59.382Z,2.20
2018-07-05T04:48:59.241Z,1.80
2018-07-05T04:49:59.238Z,2.00
2018-07-05T04:50:59.219Z,1.50
2018-07-05T04:51:59.210Z,1.80
2018-07-05T04:52:59.198Z,1.80
2018-07-05T04:53:59.202Z,1.80
2018-07-05T04:54:59.185Z,2.10
2018-07-05T04:55:59.166Z,2.10
2018-07-05T04:56:59.156Z,1.80
2018-07-05T04:57:59.147Z,1.30
2018-07-05T04:58:59.151Z,1.80
2018-07-05T04:59:59.125Z,1.60
2018-07-05T05:00:59.112Z,1.60
2018-07-05T05:01:59.103Z,1.80
2018-07-05T05:02:59.092Z,1.70
2018-07-05T05:03:59.094Z,1.80
2018-07-05T05:04:59.070Z,1.70
2018-07-05T05:05:59.059Z,1.50
2018-07-05T05:06:59.060Z,1.70
2018-07-05T05:07:59.037Z,1.70
2018-07-05T05:08:59.043Z,1.80
2018-07-05T05:09:59.017Z,2.10
2018-07-05T05:10:59.005Z,1.90
2018-07-05T05:11:59.003Z,1.80
2018-07-05T05:12:58.982Z,2.70
2018-07-05T05:13:58.990Z,1.90
2018-07-05T05:14:59.028Z,1.70
2018-07-05T05:15:58.951Z,2.00
2018-07-05T05:16:58.984Z,1.40
2018-07-05T05:17:58.931Z,1.70
2018-07-05T05:18:59.063Z,1.70
2018-07-05T05:19:58.910Z,1.70
2018-07-05T05:20:58.900Z,2.10
2018-07-05T05:21:58.888Z,2.00
2018-07-05T05:22:58.879Z,2.00
2018-07-05T05:23:58.880Z,2.10
2018-07-05T05:24:58.874Z,1.60
2018-07-05T05:25:58.846Z,1.90
2018-07-05T05:26:58.837Z,1.90
2018-07-05T05:27:58.825Z,1.90
2018-07-05T05:28:58.834Z,1.70
2018-07-05T05:29:58.809Z,1.40
2018-07-05T05:30:58.795Z,2.00
2018-07-05T05:31:58.790Z,2.00
2018-07-05T05:32:58.774Z,2.00
2018-07-05T05:33:58.779Z,1.70
2018-07-05T05:34:58.761Z,1.80
2018-07-05T05:35:58.741Z,2.00
2018-07-05T05:36:58.734Z,1.80
2018-07-05T05:37:58.721Z,1.70
2018-07-05T05:38:58.799Z,2.00
2018-07-05T05:39:58.701Z,2.20
2018-07-05T05:40:58.688Z,1.70
2018-07-05T05:41:58.677Z,2.00
2018-07-05T05:42:58.669Z,2.10
2018-07-05T05:43:58.680Z,2.10
2018-07-05T05:44:58.646Z,2.00
2018-07-05T05:45:58.639Z,1.50
2018-07-05T05:46:58.627Z,1.80
2018-07-05T05:47:58.616Z,1.70
2018-07-05T05:48:58.605Z,2.40
2018-07-05T05:49:58.608Z,1.50
2018-07-05T05:50:58.584Z,1.70
2018-07-05T05:51:58.575Z,2.20
2018-07-05T05:52:58.567Z,1.80
2018-07-05T05:53:58.555Z,1.90
2018-07-05T05:54:58.557Z,1.70
2018-07-05T05:55:58.532Z,1.90
2018-07-05T05:56:58.520Z,2.00
2018-07-05T05:57:58.512Z,1.90
2018-07-05T05:58:58.504Z,1.90
2018-07-05T05:59:58.511Z,2.30
2018-07-05T06:00:58.480Z,2.30
2018-07-05T06:01:58.473Z,2.20
2018-07-05T06:02:58.460Z,2.20
2018-07-05T06:03:58.463Z,2.20
2018-07-05T06:04:58.456Z,1.80
2018-07-05T06:05:58.428Z,1.80
2018-07-05T06:06:58.417Z,2.20
2018-07-05T06:07:58.452Z,2.20
2018-07-05T06:08:58.401Z,2.30
2018-07-05T06:09:58.404Z,2.00
2018-07-05T06:10:58.376Z,1.90
2018-07-05T06:11:58.366Z,2.50
2018-07-05T06:12:58.354Z,2.00
2018-07-05T06:13:58.349Z,2.50
2018-07-05T06:14:58.349Z,2.20
2018-07-05T06:15:58.324Z,2.40
2018-07-05T06:16:58.314Z,2.80
2018-07-05T06:17:58.303Z,2.20
2018-07-05T06:18:58.292Z,2.20
2018-07-05T06:19:58.300Z,2.20
2018-07-05T06:20:58.274Z,2.20
2018-07-05T06:21:58.261Z,2.60
2018-07-05T06:22:58.253Z,2.40
2018-07-05T06:23:58.242Z,2.50
2018-07-05T06:24:58.258Z,2.80
2018-07-05T06:25:58.227Z,2.60
2018-07-05T06:26:58.210Z,2.30
2018-07-05T06:27:58.203Z,1.90
2018-07-05T06:28:58.191Z,2.50
2018-07-05T06:29:58.195Z,1.90
2018-07-05T06:30:58.171Z,2.60
2018-07-05T06:31:58.167Z,2.20
2018-07-05T06:32:58.150Z,2.20
2018-07-05T06:33:58.143Z,2.40
2018-07-05T06:34:58.150Z,2.50
2018-07-05T06:35:58.123Z,2.40
2018-07-05T06:36:58.115Z,2.50
2018-07-05T06:37:58.099Z,2.50
2018-07-05T06:38:58.092Z,3.10
2018-07-05T06:39:58.080Z,2.60
2018-07-05T06:40:58.084Z,3.20
2018-07-05T06:41:58.059Z,3.30
2018-07-05T06:42:58.049Z,2.70
2018-07-05T06:43:58.038Z,2.70
2018-07-05T06:44:58.033Z,3.20
2018-07-05T06:45:58.036Z,3.00
2018-07-05T06:46:58.018Z,3.10
2018-07-05T06:47:57.999Z,2.90
2018-07-05T06:48:57.990Z,3.00
2018-07-05T06:49:57.979Z,3.00
2018-07-05T06:50:57.984Z,2.90
2018-07-05T06:51:57.962Z,4.60
2018-07-05T06:52:57.987Z,3.90
2018-07-05T06:53:57.940Z,3.10
2018-07-05T06:54:57.929Z,3.90
2018-07-05T06:55:57.933Z,3.40
2018-07-05T06:56:57.951Z,3.10
2018-07-05T06:57:57.899Z,3.80
2018-07-05T06:58:57.894Z,4.10
2018-07-05T06:59:57.883Z,3.80
2018-07-05T07:00:57.886Z,4.60
2018-07-05T07:01:57.863Z,3.80
2018-07-05T07:02:57.851Z,4.80
2018-07-05T07:03:57.841Z,4.80
2018-07-05T07:04:57.830Z,4.90
2018-07-05T07:05:57.837Z,4.80
2018-07-05T07:06:57.811Z,4.30
2018-07-05T07:07:57.850Z,4.30
2018-07-05T07:08:57.790Z,4.70
2018-07-05T07:09:57.780Z,4.50
2018-07-05T07:10:57.786Z,4.90
2018-07-05T07:11:57.762Z,5.00
2018-07-05T07:12:57.752Z,4.60
2018-07-05T07:13:57.746Z,4.80
2018-07-05T07:14:57.731Z,4.70
2018-07-05T07:15:57.753Z,4.20
2018-07-05T07:16:57.713Z,4.30
2018-07-05T07:17:57.702Z,4.50
2018-07-05T07:18:57.701Z,4.80
2018-07-05T07:19:57.682Z,4.90
2018-07-05T07:20:57.694Z,5.10
2018-07-05T07:21:57.670Z,5.30
2018-07-05T07:22:57.655Z,5.20
2018-07-05T07:23:57.642Z,4.80
2018-07-05T07:24:57.637Z,4.70
2018-07-05T07:25:57.639Z,4.30
2018-07-05T07:26:57.614Z,4.40
2018-07-05T07:27:57.604Z,5.10
2018-07-05T07:28:57.595Z,4.40
2018-07-05T07:29:57.586Z,3.70
2018-07-05T07:30:57.605Z,3.70
2018-07-05T07:31:57.676Z,3.70
2018-07-05T07:32:57.559Z,5.00
2018-07-05T07:33:57.548Z,4.50
2018-07-05T07:34:57.543Z,5.40
2018-07-05T07:35:57.528Z,4.80
2018-07-05T07:36:57.532Z,4.60
2018-07-05T07:37:57.511Z,4.50
2018-07-05T07:38:57.510Z,3.90
2018-07-05T07:39:57.489Z,4.80
2018-07-05T07:40:57.485Z,4.20
2018-07-05T07:41:57.482Z,4.40
2018-07-05T07:42:57.459Z,5.50
2018-07-05T07:43:57.448Z,5.60
2018-07-05T07:44:57.441Z,6.60
2018-07-05T07:45:57.430Z,6.00
2018-07-05T07:46:57.437Z,6.70
2018-07-05T07:47:57.411Z,5.50
2018-07-05T07:48:57.402Z,6.10
2018-07-05T07:49:57.393Z,6.20
2018-07-05T07:50:57.383Z,5.80
2018-07-05T07:51:57.386Z,5.50
2018-07-05T07:52:57.372Z,5.70
2018-07-05T07:53:57.352Z,4.80
2018-07-05T07:54:57.342Z,5.50
2018-07-05T07:55:57.332Z,5.40
2018-07-05T07:56:57.338Z,5.20
2018-07-05T07:57:57.313Z,6.20
2018-07-05T07:58:57.305Z,5.50
2018-07-05T07:59:57.296Z,4.90
2018-07-05T08:00:57.286Z,4.80
2018-07-05T08:01:57.292Z,7.00
2018-07-05T08:02:57.265Z,6.40
2018-07-05T08:03:57.257Z,6.20
2018-07-05T08:04:57.246Z,5.80
2018-07-05T08:05:57.241Z,5.70
2018-07-05T08:06:57.241Z,4.90
2018-07-05T08:07:57.272Z,5.50
2018-07-05T08:08:57.206Z,4.10
2018-07-05T08:09:57.199Z,4.70
2018-07-05T08:10:57.189Z,4.70
2018-07-05T08:11:57.193Z,5.40
2018-07-05T08:12:57.170Z,6.00
2018-07-05T08:13:57.162Z,5.00
2018-07-05T08:14:57.201Z,5.50
2018-07-05T08:15:57.139Z,5.60
2018-07-05T08:16:57.153Z,5.70
2018-07-05T08:17:57.124Z,5.00
2018-07-05T08:18:57.113Z,5.60
2018-07-05T08:19:57.100Z,5.40
2018-07-05T08:20:57.092Z,5.50
2018-07-05T08:21:57.082Z,6.30
2018-07-05T08:22:57.085Z,6.10
2018-07-05T08:23:57.062Z,5.70
2018-07-05T08:24:57.050Z,7.40
2018-07-05T08:25:57.043Z,5.50
2018-07-05T08:26:57.031Z,6.00
2018-07-05T08:27:57.037Z,5.70
2018-07-05T08:28:57.018Z,5.40
2018-07-05T08:29:57.002Z,5.90
2018-07-05T08:30:57.029Z,6.60
2018-07-05T08:31:56.983Z,6.20
2018-07-05T08:32:56.990Z,6.50
2018-07-05T08:33:56.965Z,7.30
2018-07-05T08:34:56.956Z,6.20
2018-07-05T08:35:56.945Z,6.40
2018-07-05T08:36:56.936Z,6.80
2018-07-05T08:37:57.001Z,6.70
2018-07-05T08:38:56.914Z,6.10
2018-07-05T08:39:56.901Z,6.80
2018-07-05T08:40:56.895Z,6.90
2018-07-05T08:41:56.884Z,5.80
2018-07-05T08:42:56.887Z,6.40
2018-07-05T08:43:56.863Z,5.30
2018-07-05T08:44:56.912Z,5.70
2018-07-05T08:45:56.843Z,6.80
2018-07-05T08:46:56.915Z,7.80
2018-07-05T08:47:56.822Z,6.20
2018-07-05T08:48:56.814Z,6.40
2018-07-05T08:49:56.805Z,6.90
2018-07-05T08:50:56.793Z,6.50
2018-07-05T08:51:56.784Z,7.20
2018-07-05T08:52:56.791Z,6.50
2018-07-05T08:53:56.764Z,6.00
2018-07-05T08:54:56.753Z,6.60
2018-07-05T08:55:56.745Z,6.60
2018-07-05T08:56:56.771Z,6.40
2018-07-05T08:57:57.152Z,6.20
2018-07-05T08:58:56.720Z,5.40
2018-07-05T08:59:56.704Z,7.20
2018-07-05T09:00:56.693Z,6.40
2018-07-05T09:01:56.682Z,5.80
2018-07-05T09:02:56.702Z,7.00
2018-07-05T09:03:56.666Z,6.50
2018-07-05T09:04:56.654Z,6.30
2018-07-05T09:05:56.644Z,6.80
2018-07-05T09:06:56.639Z,5.90
2018-07-05T09:07:56.642Z,6.20
2018-07-05T09:08:56.614Z,6.70
2018-07-05T09:09:56.607Z,5.90
2018-07-05T09:10:56.594Z,5.40
2018-07-05T09:11:56.641Z,6.50
2018-07-05T09:12:56.586Z,6.60
2018-07-05T09:13:56.564Z,6.70
2018-07-05T09:14:56.578Z,6.40
2018-07-05T09:15:56.544Z,6.30
2018-07-05T09:16:56.532Z,7.10
2018-07-05T09:17:56.850Z,7.30
2018-07-05T09:18:56.515Z,7.50
2018-07-05T09:19:56.500Z,6.30
2018-07-05T09:20:56.493Z,6.20
2018-07-05T09:21:56.483Z,5.70
2018-07-05T09:22:56.486Z,6.00
2018-07-05T09:23:56.464Z,7.10
2018-07-05T09:24:56.453Z,6.60
2018-07-05T09:25:56.442Z,7.20
2018-07-05T09:26:56.433Z,6.30
2018-07-05T09:27:56.439Z,7.20
2018-07-05T09:28:56.410Z,7.20
2018-07-05T09:29:56.403Z,7.80
2018-07-05T09:30:56.393Z,7.30
2018-07-05T09:31:56.383Z,5.70
2018-07-05T09:32:56.387Z,6.50
2018-07-05T09:33:56.364Z,6.60
2018-07-05T09:34:56.349Z,6.50
2018-07-05T09:35:56.341Z,7.10
2018-07-05T09:36:56.330Z,7.30
2018-07-05T09:37:56.334Z,6.80
2018-07-05T09:38:56.310Z,6.50
2018-07-05T09:39:56.298Z,6.90
2018-07-05T09:40:56.289Z,6.50
2018-07-05T09:41:56.277Z,7.10
2018-07-05T09:42:56.280Z,7.00
2018-07-05T09:43:56.258Z,6.90
2018-07-05T09:44:56.246Z,5.80
2018-07-05T09:45:56.236Z,6.60
2018-07-05T09:46:56.272Z,7.10
2018-07-05T09:47:56.230Z,6.60
2018-07-05T09:48:56.206Z,6.70
2018-07-05T09:49:56.193Z,7.20
2018-07-05T09:50:56.183Z,6.90
2018-07-05T09:51:56.174Z,6.10
2018-07-05T09:52:56.195Z,7.10
2018-07-05T09:53:56.150Z,7.50
2018-07-05T09:54:56.140Z,7.60
2018-07-05T09:55:56.130Z,7.00
2018-07-05T09:56:56.123Z,6.60
2018-07-05T09:57:56.187Z,6.90
2018-07-05T09:58:56.103Z,6.70
2018-07-05T09:59:56.089Z,6.30
2018-07-05T10:00:56.079Z,7.10
2018-07-05T10:01:56.072Z,7.30
2018-07-05T10:02:56.074Z,7.30
2018-07-05T10:03:56.048Z,6.60
2018-07-05T10:04:56.043Z,6.70
2018-07-05T10:05:56.030Z,6.80
2018-07-05T10:06:56.016Z,6.10
2018-07-05T10:07:56.030Z,6.90
2018-07-05T10:08:55.997Z,7.40
2018-07-05T10:09:55.987Z,6.60
2018-07-05T10:10:55.977Z,6.60
2018-07-05T10:11:55.968Z,6.70
2018-07-05T10:12:55.984Z,7.60
2018-07-05T10:13:56.036Z,7.30
2018-07-05T10:14:55.936Z,7.60
2018-07-05T10:15:55.926Z,6.10
2018-07-05T10:16:55.915Z,7.30
2018-07-05T10:17:55.921Z,6.80
2018-07-05T10:18:55.893Z,7.60
2018-07-05T10:19:55.882Z,6.00
2018-07-05T10:20:55.873Z,6.20
2018-07-05T10:21:55.863Z,6.30
2018-07-05T10:22:55.870Z,7.20
2018-07-05T10:23:55.842Z,7.30
2018-07-05T10:24:55.832Z,6.80
2018-07-05T10:25:55.822Z,7.00
2018-07-05T10:26:55.833Z,8.40
2018-07-05T10:27:55.799Z,6.70
2018-07-05T10:28:55.804Z,6.80
2018-07-05T10:29:55.782Z,6.30
2018-07-05T10:30:55.770Z,6.80
2018-07-05T10:31:55.760Z,7.80
2018-07-05T10:32:55.811Z,7.00
2018-07-05T10:33:55.753Z,7.60
2018-07-05T10:34:55.730Z,7.10
2018-07-05T10:35:55.724Z,7.60
2018-07-05T10:36:55.710Z,7.10
2018-07-05T10:37:55.697Z,6.20
2018-07-05T10:38:55.705Z,5.60
2018-07-05T10:39:55.678Z,8.10
2018-07-05T10:40:55.674Z,6.40
2018-07-05T10:41:55.658Z,6.90
2018-07-05T10:42:55.649Z,7.30
2018-07-05T10:43:55.652Z,7.00
2018-07-05T10:44:55.633Z,6.50
2018-07-05T10:45:55.661Z,7.00
2018-07-05T10:46:55.606Z,6.40
2018-07-05T10:47:55.598Z,7.20
2018-07-05T10:48:55.600Z,6.80
2018-07-05T10:49:55.578Z,7.00
2018-07-05T10:50:55.568Z,7.10
2018-07-05T10:51:55.558Z,7.20
2018-07-05T10:52:55.549Z,6.50
2018-07-05T10:53:55.556Z,6.70
2018-07-05T10:54:55.533Z,6.50
2018-07-05T10:55:55.519Z,6.30
2018-07-05T10:56:55.512Z,5.30
2018-07-05T10:57:55.501Z,6.60
2018-07-05T10:58:55.504Z,7.60
2018-07-05T10:59:55.480Z,6.90
2018-07-05T11:00:55.508Z,7.20
2018-07-05T11:01:55.461Z,6.20
2018-07-05T11:02:55.448Z,7.00
2018-07-05T11:03:55.454Z,7.50
2018-07-05T11:04:55.433Z,7.00
2018-07-05T11:05:55.421Z,7.00
2018-07-05T11:06:55.411Z,6.80
2018-07-05T11:07:55.398Z,6.20
2018-07-05T11:08:55.403Z,6.40
2018-07-05T11:09:55.382Z,6.30
2018-07-05T11:10:55.371Z,6.90
2018-07-05T11:11:55.360Z,7.40
2018-07-05T11:12:55.348Z,7.60
2018-07-05T11:13:55.355Z,7.70
2018-07-05T11:14:55.405Z,7.50
2018-07-05T11:15:55.321Z,7.60
2018-07-05T11:16:55.312Z,6.00
2018-07-05T11:17:55.317Z,7.00
2018-07-05T11:18:55.308Z,9.40
2018-07-05T11:19:55.286Z,8.00
2018-07-05T11:20:55.320Z,7.50
2018-07-05T11:21:55.261Z,7.70
2018-07-05T11:22:55.298Z,7.60
2018-07-05T11:23:55.241Z,7.40
2018-07-05T11:24:55.229Z,8.20
2018-07-05T11:25:55.219Z,6.80
2018-07-05T11:26:55.209Z,7.10
2018-07-05T11:27:55.201Z,7.40
2018-07-05T11:28:55.210Z,7.90
2018-07-05T11:29:55.181Z,7.40
2018-07-05T11:30:55.176Z,7.80
2018-07-05T11:31:55.160Z,7.30
2018-07-05T11:32:55.150Z,7.70
2018-07-05T11:33:55.154Z,7.70
2018-07-05T11:34:55.135Z,8.10
2018-07-05T11:35:55.120Z,7.50
2018-07-05T11:36:55.112Z,7.90
2018-07-05T11:37:55.102Z,7.90
2018-07-05T11:38:55.104Z,7.60
2018-07-05T11:39:55.081Z,6.50
2018-07-05T11:40:55.069Z,8.40
2018-07-05T11:41:55.059Z,8.70
2018-07-05T11:42:55.049Z,8.70
2018-07-05T11:43:55.053Z,8.40
2018-07-05T11:44:55.035Z,8.10
2018-07-05T11:45:55.017Z,8.30
2018-07-05T11:46:55.012Z,8.70
2018-07-05T11:47:55.081Z,8.80
2018-07-05T11:48:55.003Z,8.30
2018-07-05T11:49:54.982Z,9.20
2018-07-05T11:50:54.970Z,8.60
2018-07-05T11:51:54.961Z,8.10
2018-07-05T11:52:54.960Z,9.30
2018-07-05T11:53:54.952Z,8.20
2018-07-05T11:54:55.090Z,7.40
2018-07-05T11:55:54.918Z,8.20
2018-07-05T11:56:54.908Z,9.50
2018-07-05T11:57:54.900Z,9.00
2018-07-05T11:58:54.906Z,8.90
2018-07-05T11:59:54.877Z,9.10
2018-07-05T12:00:54.872Z,8.40
2018-07-05T12:01:54.909Z,7.50
2018-07-05T12:02:54.907Z,8.30
2018-07-05T12:03:54.852Z,7.30
2018-07-05T12:04:54.828Z,6.90
2018-07-05T12:05:54.819Z,7.30
2018-07-05T12:06:54.807Z,8.00
2018-07-05T12:07:54.800Z,8.20
2018-07-05T12:08:54.832Z,8.10
2018-07-05T12:09:54.777Z,8.60
2018-07-05T12:10:54.766Z,7.10
2018-07-05T12:11:54.758Z,8.40
2018-07-05T12:12:54.747Z,7.80
2018-07-05T12:13:54.752Z,7.50
2018-07-05T12:14:54.729Z,7.20
2018-07-05T12:15:54.718Z,6.00
2018-07-05T12:16:54.707Z,6.40
2018-07-05T12:17:54.697Z,7.30
2018-07-05T12:18:54.700Z,7.70
2018-07-05T12:19:54.676Z,7.30
2018-07-05T12:20:54.668Z,7.20
2018-07-05T12:21:54.654Z,7.00
2018-07-05T12:22:54.645Z,7.40
2018-07-05T12:23:54.686Z,7.40
2018-07-05T12:24:54.624Z,7.50
2018-07-05T12:25:54.617Z,7.10
2018-07-05T12:26:54.603Z,7.20
2018-07-05T12:27:54.597Z,6.40
2018-07-05T12:28:54.601Z,6.60
2018-07-05T12:29:54.572Z,6.80
2018-07-05T12:30:54.562Z,5.70
2018-07-05T12:31:54.555Z,6.30
2018-07-05T12:32:54.543Z,6.40
2018-07-05T12:33:54.545Z,6.30
2018-07-05T12:34:54.521Z,5.80
2018-07-05T12:35:54.512Z,6.80
2018-07-05T12:36:54.498Z,6.50
2018-07-05T12:37:54.491Z,8.20
2018-07-05T12:38:54.507Z,7.50
2018-07-05T12:39:54.469Z,6.70
2018-07-05T12:40:54.464Z,5.50
2018-07-05T12:41:54.446Z,6.10
2018-07-05T12:42:54.443Z,6.00
2018-07-05T12:43:54.445Z,7.10
2018-07-05T12:44:54.417Z,7.10
2018-07-05T12:45:54.404Z,6.80
2018-07-05T12:46:54.399Z,6.60
2018-07-05T12:47:54.384Z,5.20
2018-07-05T12:48:54.392Z,5.60
2018-07-05T12:49:54.363Z,5.60
2018-07-05T12:50:54.351Z,5.30
2018-07-05T12:51:54.380Z,6.10
2018-07-05T12:52:54.332Z,4.90
2018-07-05T12:53:54.333Z,5.60
2018-07-05T12:54:54.311Z,4.80
2018-07-05T12:55:54.302Z,4.90
2018-07-05T12:56:54.308Z,4.60
2018-07-05T12:57:54.280Z,4.70
2018-07-05T12:58:54.283Z,5.30
2018-07-05T12:59:54.257Z,5.00
2018-07-05T13:00:54.247Z,4.00
2018-07-05T13:01:54.236Z,4.70
2018-07-05T13:02:54.228Z,5.00
2018-07-05T13:03:54.284Z,4.60
2018-07-05T13:04:54.203Z,4.60
2018-07-05T13:05:54.192Z,5.20
2018-07-05T13:06:54.190Z,5.00
2018-07-05T13:07:54.177Z,4.80
2018-07-05T13:08:54.180Z,5.50
2018-07-05T13:09:54.157Z,4.40
2018-07-05T13:10:54.144Z,4.70
2018-07-05T13:11:54.137Z,4.60
2018-07-05T13:12:54.305Z,4.70
2018-07-05T13:13:54.130Z,5.30
2018-07-05T13:14:54.099Z,5.40
2018-07-05T13:15:54.091Z,5.60
2018-07-05T13:16:54.087Z,4.90
2018-07-05T13:17:54.067Z,5.30